Ana Sayfa
METAR-TAF:

METAR-TAF

Havaalanları :

Brooks Field

Marshall, Michigan, Amerika Birleşik Devletleri

Enlem: 42-15-04N, Boylam: 084-57-20W, yükseklik: 287 m

Güncel hava durumu gözlemi

Rapor saat 09:15 UTC de 17 dakika önce yapıldı.
Rüzgar batı/kuzeybatıdan 6 kt
Sıcaklık 0°C
Nem 69%
Basınç 1010 hPa
Görüş mesafesi: 16.1 km
2700 ft yükseklikte parçalı bulutlu

METAR: KRMY 100915Z AUTO 30006KT 10SM SCT027 00/M05 A2983 RMK AO2 T00001046

Saat: 05:32 (09:32 UTC)


TAF: eksik

4.000'den fazla havaalanı için hava durumu gözlemleri ve tahminleri (METAR ve TAF raporları).

Kullanılabilir istasyonlar harita üzerinde sarı ve kırmızı noktalarla gösterilir.

İstasyonun adını görmek için fareyi noktanın üzerinde gezdirin.

Sonrasında hava gözlem ve tahminlerini görmek için tıklayın.

Haritayı değiştirmek için: yaklaştırmak için siyah artı işaretli yeşil düğmeye ve uzaklaştırmak için de eksi işaretli düğmeye hızla tıklayın; bitişik haritalar için yeşil okları kullanın.


METAR-TAF: